Tyrone, Oklahoma
Current Conditions -  °F | °C
As of 4:35 PM on Tuesday 21 Oct 2014 (Local Time) from KLBL Reporting Station
Broken Clouds Broken Clouds  
Wind Chill: 79°   Ceiling: 7500
Heat Index: 79°   Visibility: 10mi
Dew Point: 50°   Wind: 20mph
Humidity: 36%   Direction: 170°S
Pressure: 30.01"   Gusts: NA
Location:  36.95°N, 101.07°W
Report Text: KLBL 212135Z AUTO 17017KT 10SM BKN075 26/10 A3001 RMK AO1
Loading
Personal Weather Stations






























Interactive Weather Map
Tropical Storm Tracking
New forecast layout! Learn more

10-Day Weather Forecast

Advertisements
Track Severe Weather on mobile